createdAt,value
2023-05-19T00:01:13.617Z,39.43
2023-05-19T00:04:02.978Z,39.44
2023-05-19T00:06:51.387Z,39.28
2023-05-19T00:09:38.382Z,39.35
2023-05-19T00:12:25.489Z,39.07
2023-05-19T00:15:12.996Z,39.16
2023-05-19T00:17:59.913Z,39.33
2023-05-19T00:20:46.832Z,39.43
2023-05-19T00:23:33.685Z,39.36
2023-05-19T00:26:22.722Z,39.29
2023-05-19T00:29:09.593Z,39.31
2023-05-19T00:31:56.824Z,39.79
2023-05-19T00:34:43.939Z,39.57
2023-05-19T00:37:30.840Z,39.62
2023-05-19T00:40:17.977Z,39.83
2023-05-19T00:43:08.493Z,39.66
2023-05-19T00:45:55.460Z,39.85
2023-05-19T00:48:44.744Z,39.68
2023-05-19T00:51:32.096Z,39.79
2023-05-19T00:54:20.497Z,39.63
2023-05-19T00:57:07.442Z,39.64
2023-05-19T00:59:54.393Z,39.68
2023-05-19T01:02:41.522Z,39.84
2023-05-19T01:05:28.601Z,40.03
2023-05-19T01:08:16.331Z,40.10
2023-05-19T01:11:04.128Z,40.38
2023-05-19T01:13:51.058Z,40.29
2023-05-19T01:16:42.670Z,40.09
2023-05-19T01:19:30.743Z,40.39
2023-05-19T01:22:45.029Z,40.31
2023-05-19T01:25:50.747Z,40.49
2023-05-19T01:28:46.802Z,40.29
2023-05-19T01:31:33.897Z,40.34
2023-05-19T01:34:21.796Z,40.64
2023-05-19T01:37:09.245Z,40.37
2023-05-19T01:39:56.313Z,40.39
2023-05-19T01:42:45.164Z,40.56
2023-05-19T01:45:32.882Z,40.68
2023-05-19T01:48:20.281Z,40.95
2023-05-19T01:51:07.281Z,40.52
2023-05-19T01:53:54.119Z,40.79
2023-05-19T01:57:11.621Z,40.62
2023-05-19T02:00:10.348Z,40.78
2023-05-19T02:03:24.236Z,40.78
2023-05-19T02:06:11.201Z,41.17
2023-05-19T02:09:03.718Z,40.48
2023-05-19T02:12:02.499Z,40.76
2023-05-19T02:15:22.282Z,40.69
2023-05-19T02:18:12.565Z,40.69
2023-05-19T02:20:59.587Z,40.73
2023-05-19T02:23:47.299Z,40.86
2023-05-19T02:26:34.158Z,40.60
2023-05-19T02:29:21.056Z,40.87
2023-05-19T02:32:08.083Z,40.55
2023-05-19T02:34:56.506Z,40.53
2023-05-19T02:37:43.522Z,40.82
2023-05-19T02:40:30.572Z,41.28
2023-05-19T02:43:17.672Z,40.66
2023-05-19T02:46:04.636Z,40.85
2023-05-19T02:48:52.400Z,40.97
2023-05-19T02:51:39.261Z,41.21
2023-05-19T02:54:26.192Z,41.06
2023-05-19T02:57:13.057Z,41.29
2023-05-19T02:59:59.960Z,40.98
2023-05-19T03:02:47.022Z,41.42
2023-05-19T03:05:34.021Z,41.06
2023-05-19T03:08:20.858Z,41.63
2023-05-19T03:11:07.744Z,41.26
2023-05-19T03:13:54.584Z,41.05
2023-05-19T03:16:42.297Z,41.47
2023-05-19T03:19:29.452Z,41.76
2023-05-19T03:22:16.334Z,41.44
2023-05-19T03:25:03.432Z,41.77
2023-05-19T03:27:50.463Z,41.67
2023-05-19T03:30:37.415Z,41.65
2023-05-19T03:33:24.460Z,41.82
2023-05-19T03:36:12.670Z,41.69
2023-05-19T03:38:59.608Z,41.65
2023-05-19T03:41:46.466Z,41.08
2023-05-19T03:44:33.358Z,42.01
2023-05-19T03:47:20.208Z,42.49
2023-05-19T03:50:07.550Z,42.10
2023-05-19T03:52:55.214Z,42.11
2023-05-19T03:55:42.139Z,42.28
2023-05-19T03:58:30.145Z,42.74
2023-05-19T04:01:17.169Z,42.46
2023-05-19T04:04:04.232Z,42.40
2023-05-19T04:06:51.224Z,42.51
2023-05-19T04:09:38.237Z,42.21
2023-05-19T04:12:25.097Z,42.31
2023-05-19T04:15:12.577Z,42.22
2023-05-19T04:17:59.528Z,42.56
2023-05-19T04:20:46.447Z,42.43
2023-05-19T04:23:33.260Z,42.68
2023-05-19T04:26:21.954Z,42.78
2023-05-19T04:29:10.610Z,42.58
2023-05-19T04:31:57.504Z,42.35
2023-05-19T04:34:46.023Z,42.63
2023-05-19T04:37:32.857Z,42.99
2023-05-19T04:40:21.140Z,42.35
2023-05-19T04:43:09.433Z,43.25
2023-05-19T04:45:58.145Z,42.76
2023-05-19T04:48:45.170Z,43.19
2023-05-19T04:51:32.051Z,42.72
2023-05-19T04:54:18.877Z,43.01
2023-05-19T04:57:06.157Z,43.17
2023-05-19T04:59:53.224Z,42.92
2023-05-19T05:02:40.223Z,43.53
2023-05-19T05:05:27.089Z,43.52
2023-05-19T05:08:16.163Z,44.10
2023-05-19T05:11:03.354Z,44.08
2023-05-19T05:13:50.674Z,43.83
2023-05-19T05:16:37.907Z,44.03
2023-05-19T05:19:25.035Z,44.05
2023-05-19T05:22:12.239Z,43.90
2023-05-19T05:24:59.456Z,43.88
2023-05-19T05:27:46.345Z,44.09
2023-05-19T05:30:36.266Z,43.62
2023-05-19T05:33:24.872Z,43.98
2023-05-19T05:36:12.553Z,44.06
2023-05-19T05:38:59.550Z,43.87
2023-05-19T05:41:46.432Z,43.81
2023-05-19T05:44:35.674Z,43.42
2023-05-19T05:47:22.804Z,44.05
2023-05-19T05:50:10.812Z,44.04
2023-05-19T05:52:57.792Z,43.39
2023-05-19T05:55:46.207Z,44.06
2023-05-19T05:58:36.350Z,43.83
2023-05-19T06:01:24.195Z,43.86
2023-05-19T06:04:11.183Z,43.88
2023-05-19T06:07:01.138Z,43.82
2023-05-19T06:09:48.068Z,43.64
2023-05-19T06:12:35.318Z,43.61
2023-05-19T06:15:22.458Z,43.65
2023-05-19T06:18:09.477Z,43.80
2023-05-19T06:20:56.410Z,43.69
2023-05-19T06:23:43.574Z,43.71
2023-05-19T06:26:30.480Z,43.60
2023-05-19T06:29:17.361Z,43.36
2023-05-19T06:32:04.424Z,43.77
2023-05-19T06:34:54.237Z,44.00
2023-05-19T06:37:41.273Z,43.65
2023-05-19T06:40:28.242Z,43.97
2023-05-19T06:43:15.088Z,43.83
2023-05-19T06:46:02.193Z,44.11
2023-05-19T06:48:49.126Z,44.03
2023-05-19T06:51:36.034Z,43.76
2023-05-19T06:54:22.900Z,44.41
2023-05-19T06:57:09.759Z,44.08
2023-05-19T06:59:56.609Z,44.60
2023-05-19T07:02:43.620Z,44.31
2023-05-19T07:05:30.576Z,44.08
2023-05-19T07:08:17.453Z,43.92
2023-05-19T07:11:04.576Z,44.60
2023-05-19T07:13:51.528Z,44.42
2023-05-19T07:16:38.515Z,44.66
2023-05-19T07:19:25.537Z,45.00
2023-05-19T07:22:12.465Z,44.72
2023-05-19T07:24:59.411Z,44.76
2023-05-19T07:27:46.281Z,44.83
2023-05-19T07:30:33.377Z,44.62
2023-05-19T07:33:20.482Z,44.70
2023-05-19T07:36:07.355Z,44.01
2023-05-19T07:38:54.294Z,44.25
2023-05-19T07:41:41.186Z,44.64
2023-05-19T07:44:28.127Z,44.63
2023-05-19T07:47:15.046Z,44.12
2023-05-19T07:50:01.926Z,44.15
2023-05-19T07:52:48.866Z,44.06
2023-05-19T07:55:35.782Z,44.33
2023-05-19T07:58:22.666Z,44.39
2023-05-19T08:01:09.554Z,44.16
2023-05-19T08:03:56.761Z,44.21
2023-05-19T08:06:44.588Z,44.06
2023-05-19T08:09:31.561Z,44.11
2023-05-19T08:12:18.376Z,44.30
2023-05-19T08:15:05.807Z,44.00
2023-05-19T08:17:53.244Z,44.21
2023-05-19T08:20:40.160Z,44.46
2023-05-19T08:23:27.056Z,44.26
2023-05-19T08:26:13.913Z,43.91
2023-05-19T08:29:01.072Z,44.16
2023-05-19T08:31:48.005Z,43.92
2023-05-19T08:34:34.964Z,43.93
2023-05-19T08:37:22.010Z,43.87
2023-05-19T08:40:16.225Z,43.93
2023-05-19T08:43:03.653Z,43.92
2023-05-19T08:45:50.594Z,44.18
2023-05-19T08:48:39.502Z,44.37
2023-05-19T08:51:32.357Z,44.21
2023-05-19T08:54:20.865Z,44.37
2023-05-19T08:57:08.068Z,44.22
2023-05-19T08:59:55.905Z,44.00
2023-05-19T09:02:50.686Z,44.24
2023-05-19T09:05:48.360Z,44.23
2023-05-19T09:08:36.052Z,44.29
2023-05-19T09:11:22.947Z,44.28
2023-05-19T09:14:09.779Z,44.08
2023-05-19T09:16:56.873Z,44.23
2023-05-19T09:19:44.829Z,44.11
2023-05-19T09:22:33.420Z,44.32
2023-05-19T09:25:22.618Z,44.28
2023-05-19T09:28:09.499Z,44.36
2023-05-19T09:31:07.373Z,44.72
2023-05-19T09:33:54.341Z,44.50
2023-05-19T09:36:42.402Z,44.52
2023-05-19T09:39:29.902Z,44.74
2023-05-19T09:42:16.965Z,44.44
2023-05-19T09:45:04.831Z,44.62
2023-05-19T09:47:51.898Z,44.95
2023-05-19T09:50:38.813Z,44.92
2023-05-19T09:53:25.770Z,45.02
2023-05-19T09:56:15.096Z,44.62
2023-05-19T09:59:05.235Z,44.74
2023-05-19T10:01:56.770Z,44.64
2023-05-19T10:04:44.040Z,44.66
2023-05-19T10:07:31.243Z,45.26
2023-05-19T10:10:20.836Z,44.93
2023-05-19T10:13:07.856Z,44.89
2023-05-19T10:15:59.201Z,44.81
2023-05-19T10:18:47.233Z,44.75
2023-05-19T10:21:34.207Z,44.91
2023-05-19T10:24:23.962Z,44.70
2023-05-19T10:27:12.462Z,44.64
2023-05-19T10:30:05.040Z,44.48
2023-05-19T10:32:52.595Z,44.48
2023-05-19T10:36:02.577Z,44.43
2023-05-19T10:39:06.896Z,44.65
2023-05-19T10:42:24.787Z,44.65
2023-05-19T10:45:21.336Z,44.47
2023-05-19T10:48:14.019Z,44.29
2023-05-19T10:51:00.973Z,44.46
2023-05-19T10:53:49.999Z,44.21
2023-05-19T10:56:42.276Z,44.30
2023-05-19T10:59:34.637Z,44.44
2023-05-19T11:02:36.546Z,44.22
2023-05-19T11:05:29.889Z,44.66
2023-05-19T11:08:17.968Z,44.25
2023-05-19T11:11:17.279Z,44.49
2023-05-19T11:14:04.202Z,44.04
2023-05-19T11:16:59.090Z,43.75
2023-05-19T11:19:57.456Z,43.83
2023-05-19T11:23:01.764Z,44.06
2023-05-19T11:25:51.271Z,43.78
2023-05-19T11:28:38.682Z,43.63
2023-05-19T11:31:28.168Z,44.21
2023-05-19T11:34:15.890Z,43.89
2023-05-19T11:37:02.862Z,43.85
2023-05-19T11:39:49.813Z,43.85
2023-05-19T11:42:37.120Z,44.11
2023-05-19T11:45:28.192Z,44.32
2023-05-19T11:48:18.362Z,44.30
2023-05-19T11:51:06.665Z,44.48
2023-05-19T11:53:54.708Z,44.29
2023-05-19T11:56:42.392Z,43.80
2023-05-19T11:59:32.261Z,44.12
2023-05-19T12:02:24.994Z,44.22
2023-05-19T12:05:19.604Z,44.11
2023-05-19T12:08:06.552Z,43.79
2023-05-19T12:10:54.129Z,43.72
2023-05-19T12:13:41.182Z,43.69
2023-05-19T12:16:35.417Z,43.65
2023-05-19T12:19:26.196Z,43.65
2023-05-19T12:22:13.989Z,43.24
2023-05-19T12:25:01.833Z,43.04
2023-05-19T12:27:49.649Z,43.22
2023-05-19T12:30:36.797Z,42.96
2023-05-19T12:33:24.661Z,43.41
2023-05-19T12:36:13.558Z,42.91
2023-05-19T12:39:00.663Z,42.69
2023-05-19T12:41:47.563Z,42.87
2023-05-19T12:44:38.753Z,43.35
2023-05-19T12:47:35.844Z,43.66
2023-05-19T12:50:29.964Z,43.62
2023-05-19T12:53:16.932Z,43.71
2023-05-19T12:56:12.026Z,43.83
2023-05-19T12:59:00.780Z,43.86
2023-05-19T13:01:54.829Z,43.49
2023-05-19T13:04:41.701Z,43.37
2023-05-19T13:07:28.595Z,43.17
2023-05-19T13:10:15.506Z,43.28
2023-05-19T13:13:03.018Z,43.44
2023-05-19T13:15:49.855Z,43.28
2023-05-19T13:18:37.690Z,43.53
2023-05-19T13:21:24.989Z,43.45
2023-05-19T13:24:11.813Z,43.48
2023-05-19T13:26:58.705Z,43.16
2023-05-19T13:29:45.664Z,43.08
2023-05-19T13:32:32.753Z,43.21
2023-05-19T13:35:20.084Z,43.56
2023-05-19T13:38:09.874Z,43.54
2023-05-19T13:40:57.282Z,43.50
2023-05-19T13:43:44.144Z,43.55
2023-05-19T13:46:44.220Z,43.76
2023-05-19T13:49:31.965Z,43.07
2023-05-19T13:52:20.672Z,42.83
2023-05-19T13:55:07.827Z,42.03
2023-05-19T13:57:54.747Z,42.37
2023-05-19T14:00:41.647Z,41.69
2023-05-19T14:03:28.670Z,41.43
2023-05-19T14:06:15.633Z,40.70
2023-05-19T14:09:02.716Z,41.19
2023-05-19T14:11:49.804Z,40.92
2023-05-19T14:14:36.704Z,41.10
2023-05-19T14:17:23.811Z,41.00
2023-05-19T14:20:11.122Z,40.35
2023-05-19T14:22:58.044Z,39.95
2023-05-19T14:25:44.893Z,40.39
2023-05-19T14:28:31.755Z,40.31
2023-05-19T14:31:18.752Z,40.76
2023-05-19T14:34:05.787Z,40.33
2023-05-19T14:36:52.654Z,40.35
2023-05-19T14:39:39.515Z,40.41
2023-05-19T14:42:26.345Z,40.19
2023-05-19T14:45:13.539Z,39.90
2023-05-19T14:48:00.538Z,40.59
2023-05-19T14:50:50.365Z,40.30
2023-05-19T14:53:37.252Z,40.57
2023-05-19T14:56:24.251Z,40.58
2023-05-19T14:59:11.116Z,40.70
2023-05-19T15:01:57.990Z,40.29
2023-05-19T15:04:44.935Z,40.66
2023-05-19T15:07:31.814Z,40.38
2023-05-19T15:10:21.786Z,40.44
2023-05-19T15:13:08.654Z,40.45
2023-05-19T15:16:08.402Z,40.13
2023-05-19T15:19:02.200Z,40.17
2023-05-19T15:21:50.626Z,40.50
2023-05-19T15:24:37.499Z,39.88
2023-05-19T15:27:24.368Z,40.48
2023-05-19T15:30:11.469Z,40.41
2023-05-19T15:32:58.375Z,40.64
2023-05-19T15:35:45.401Z,40.71
2023-05-19T15:38:35.500Z,40.40
2023-05-19T15:41:22.352Z,40.58
2023-05-19T15:44:09.311Z,40.92
2023-05-19T15:46:56.223Z,41.15
2023-05-19T15:49:43.182Z,41.04
2023-05-19T15:52:30.026Z,41.04
2023-05-19T15:55:16.886Z,40.93
2023-05-19T15:58:03.727Z,40.66
2023-05-19T16:00:50.609Z,40.65
2023-05-19T16:03:37.778Z,40.37
2023-05-19T16:06:25.111Z,40.46
2023-05-19T16:09:12.007Z,40.45
2023-05-19T16:11:58.862Z,40.55
2023-05-19T16:14:45.768Z,40.60
2023-05-19T16:17:32.763Z,40.67
2023-05-19T16:20:21.387Z,40.43
2023-05-19T16:23:08.364Z,40.70
2023-05-19T16:25:55.385Z,40.71
2023-05-19T16:28:42.399Z,40.74
2023-05-19T16:31:29.250Z,40.64
2023-05-19T16:34:16.429Z,39.63
2023-05-19T16:37:03.448Z,39.74
2023-05-19T16:39:50.391Z,40.36
2023-05-19T16:42:37.271Z,40.13
2023-05-19T16:45:26.198Z,40.55
2023-05-19T16:48:13.182Z,40.50
2023-05-19T16:51:00.151Z,40.52
2023-05-19T16:53:47.136Z,40.53
2023-05-19T16:56:34.109Z,40.55
2023-05-19T16:59:20.935Z,40.42
2023-05-19T17:02:08.228Z,40.01
2023-05-19T17:04:55.510Z,40.39
2023-05-19T17:07:42.375Z,40.44
2023-05-19T17:10:29.263Z,40.38
2023-05-19T17:13:16.134Z,40.07
2023-05-19T17:16:03.086Z,40.38
2023-05-19T17:18:50.020Z,40.31
2023-05-19T17:21:36.924Z,39.98
2023-05-19T17:24:23.784Z,40.44
2023-05-19T17:27:10.789Z,40.46
2023-05-19T17:29:57.823Z,40.42
2023-05-19T17:32:44.786Z,40.43
2023-05-19T17:35:33.342Z,40.64
2023-05-19T17:38:20.283Z,40.72
2023-05-19T17:41:10.897Z,40.64
2023-05-19T17:43:57.796Z,41.00
2023-05-19T17:46:44.729Z,41.16
2023-05-19T17:49:31.609Z,41.31
2023-05-19T17:52:21.809Z,41.19
2023-05-19T17:55:09.591Z,41.32
2023-05-19T17:57:58.609Z,41.13
2023-05-19T18:00:45.849Z,41.14
2023-05-19T18:03:33.139Z,41.18
2023-05-19T18:06:20.902Z,41.59
2023-05-19T18:09:10.978Z,41.68
2023-05-19T18:12:01.983Z,41.80
2023-05-19T18:14:50.248Z,41.98
2023-05-19T18:17:37.234Z,41.71
2023-05-19T18:20:24.141Z,42.03
2023-05-19T18:23:11.407Z,42.14
2023-05-19T18:25:58.335Z,42.05
2023-05-19T18:28:45.233Z,42.21
2023-05-19T18:31:32.266Z,42.28
2023-05-19T18:34:19.317Z,42.50
2023-05-19T18:37:06.171Z,42.52
2023-05-19T18:39:53.042Z,42.41
2023-05-19T18:42:39.917Z,42.26
2023-05-19T18:45:26.801Z,42.34
2023-05-19T18:48:16.774Z,42.32
2023-05-19T18:51:03.916Z,42.35
2023-05-19T18:53:51.261Z,42.45
2023-05-19T18:56:38.263Z,42.48
2023-05-19T18:59:25.936Z,42.72
2023-05-19T19:02:12.804Z,42.65
2023-05-19T19:04:59.932Z,42.73
2023-05-19T19:07:47.128Z,42.72
2023-05-19T19:10:34.741Z,42.70
2023-05-19T19:13:22.504Z,42.71
2023-05-19T19:16:09.430Z,42.68
2023-05-19T19:18:56.365Z,42.86
2023-05-19T19:21:43.363Z,43.06
2023-05-19T19:24:31.361Z,43.00
2023-05-19T19:27:20.570Z,42.92
2023-05-19T19:30:08.244Z,43.13
2023-05-19T19:32:56.850Z,42.94
2023-05-19T19:35:47.015Z,43.43
2023-05-19T19:38:33.920Z,43.23
2023-05-19T19:41:21.266Z,43.04
2023-05-19T19:44:08.217Z,43.23
2023-05-19T19:46:55.157Z,43.36
2023-05-19T19:49:42.110Z,43.36
2023-05-19T19:52:28.997Z,43.39
2023-05-19T19:55:16.214Z,43.71
2023-05-19T19:58:03.073Z,43.88
2023-05-19T20:00:50.205Z,43.52
2023-05-19T20:03:37.255Z,43.69
2023-05-19T20:06:24.236Z,43.96
2023-05-19T20:09:11.151Z,43.89
2023-05-19T20:11:57.985Z,43.83
2023-05-19T20:14:44.967Z,43.98
2023-05-19T20:17:31.880Z,43.93
2023-05-19T20:20:18.824Z,43.85
2023-05-19T20:23:05.800Z,44.07
2023-05-19T20:26:10.305Z,43.97
2023-05-19T20:28:59.164Z,44.21
2023-05-19T20:31:46.629Z,44.05
2023-05-19T20:34:33.592Z,44.59
2023-05-19T20:37:22.081Z,44.52
2023-05-19T20:40:09.246Z,44.32
2023-05-19T20:42:56.279Z,44.56
2023-05-19T20:45:44.250Z,44.52
2023-05-19T20:48:31.506Z,44.61
2023-05-19T20:51:22.355Z,44.76
2023-05-19T20:54:09.247Z,44.85
2023-05-19T20:56:56.127Z,44.76
2023-05-19T20:59:42.999Z,45.26
2023-05-19T21:02:29.908Z,45.12
2023-05-19T21:05:16.890Z,44.87
2023-05-19T21:08:03.908Z,45.38
2023-05-19T21:10:51.177Z,45.44
2023-05-19T21:13:39.333Z,45.34
2023-05-19T21:16:28.467Z,45.45
2023-05-19T21:19:15.625Z,45.33
2023-05-19T21:22:02.568Z,45.46
2023-05-19T21:24:49.551Z,45.45
2023-05-19T21:27:36.564Z,45.37
2023-05-19T21:30:23.619Z,45.43
2023-05-19T21:33:11.606Z,45.46
2023-05-19T21:36:01.277Z,45.77
2023-05-19T21:38:48.516Z,45.96
2023-05-19T21:41:37.534Z,45.77
2023-05-19T21:44:25.199Z,46.21
2023-05-19T21:47:12.065Z,46.01
2023-05-19T21:49:58.936Z,45.88
2023-05-19T21:52:45.945Z,46.04
2023-05-19T21:55:32.808Z,46.04
2023-05-19T21:58:19.760Z,45.86
2023-05-19T22:01:06.627Z,46.64
2023-05-19T22:03:54.044Z,46.05
2023-05-19T22:06:41.114Z,46.36
2023-05-19T22:09:28.641Z,46.27
2023-05-19T22:12:15.572Z,46.26
2023-05-19T22:15:03.026Z,46.75
2023-05-19T22:17:49.935Z,46.84
2023-05-19T22:20:37.451Z,46.53
2023-05-19T22:23:24.332Z,46.80
2023-05-19T22:26:13.508Z,46.55
2023-05-19T22:29:00.339Z,46.90
2023-05-19T22:31:47.453Z,46.96
2023-05-19T22:34:34.432Z,47.26
2023-05-19T22:37:23.043Z,46.95
2023-05-19T22:40:13.081Z,46.98
2023-05-19T22:43:00.022Z,47.21
2023-05-19T22:45:47.044Z,47.41
2023-05-19T22:48:34.180Z,47.31
2023-05-19T22:51:21.255Z,47.44
2023-05-19T22:54:10.871Z,47.77
2023-05-19T22:56:58.013Z,47.58
2023-05-19T22:59:44.942Z,47.58
2023-05-19T23:02:32.167Z,48.00
2023-05-19T23:05:19.109Z,47.75
2023-05-19T23:08:06.073Z,48.05
2023-05-19T23:10:56.375Z,48.12
2023-05-19T23:13:43.228Z,47.86
2023-05-19T23:16:30.172Z,48.18
2023-05-19T23:19:19.188Z,47.79
2023-05-19T23:22:08.630Z,48.30
2023-05-19T23:24:56.115Z,48.34
2023-05-19T23:27:43.038Z,48.26
2023-05-19T23:30:33.002Z,48.18
2023-05-19T23:33:20.111Z,48.24
2023-05-19T23:36:09.315Z,48.38
2023-05-19T23:38:56.389Z,48.68
2023-05-19T23:41:43.278Z,48.48
2023-05-19T23:44:30.174Z,48.33
2023-05-19T23:47:17.009Z,48.37
2023-05-19T23:50:04.157Z,48.84
2023-05-19T23:52:51.350Z,48.70
2023-05-19T23:55:38.208Z,48.77
2023-05-19T23:58:25.307Z,48.80
